createdAt,value
2022-11-29T00:01:26.098Z,0.00
2022-11-29T00:03:54.213Z,0.00
2022-11-29T00:06:27.594Z,0.00
2022-11-29T00:08:56.604Z,0.00
2022-11-29T00:11:46.119Z,0.00
2022-11-29T00:14:15.875Z,0.00
2022-11-29T00:16:43.189Z,0.00
2022-11-29T00:19:12.250Z,0.00
2022-11-29T00:21:39.732Z,0.00
2022-11-29T00:24:07.636Z,0.00
2022-11-29T00:26:35.099Z,0.00
2022-11-29T00:29:02.266Z,0.00
2022-11-29T00:31:32.011Z,0.00
2022-11-29T00:34:01.611Z,0.00
2022-11-29T00:36:29.607Z,0.00
2022-11-29T00:38:56.961Z,0.00
2022-11-29T00:41:24.480Z,0.00
2022-11-29T00:43:51.897Z,0.00
2022-11-29T00:46:19.148Z,0.00
2022-11-29T00:48:46.369Z,0.00
2022-11-29T00:51:13.849Z,0.00
2022-11-29T00:53:41.318Z,0.00
2022-11-29T00:56:08.821Z,0.00
2022-11-29T00:58:36.825Z,0.00
2022-11-29T01:01:04.904Z,0.00
2022-11-29T01:03:32.438Z,0.00
2022-11-29T01:06:07.885Z,0.00
2022-11-29T01:08:35.399Z,0.00
2022-11-29T01:11:11.427Z,-0.10
2022-11-29T01:13:39.282Z,-0.10
2022-11-29T01:16:07.510Z,0.00
2022-11-29T01:18:36.157Z,0.00
2022-11-29T01:21:07.631Z,0.00
2022-11-29T01:23:36.237Z,0.00
2022-11-29T01:26:13.201Z,0.00
2022-11-29T01:28:41.244Z,0.00
2022-11-29T01:31:14.540Z,-0.10
2022-11-29T01:33:42.243Z,-0.10
2022-11-29T01:36:12.279Z,-0.10
2022-11-29T01:38:40.430Z,-0.10
2022-11-29T01:41:13.009Z,-0.10
2022-11-29T01:44:01.335Z,-0.10
2022-11-29T01:46:31.541Z,-0.10
2022-11-29T01:49:08.253Z,-0.10
2022-11-29T01:51:37.419Z,-0.10
2022-11-29T01:54:05.990Z,-0.20
2022-11-29T01:56:34.932Z,-0.20
2022-11-29T01:59:11.993Z,-0.10
2022-11-29T02:01:39.373Z,-0.20
2022-11-29T02:04:06.823Z,-0.20
2022-11-29T02:06:36.192Z,-0.20
2022-11-29T02:09:04.656Z,-0.20
2022-11-29T02:11:40.698Z,-0.20
2022-11-29T02:14:25.888Z,-0.20
2022-11-29T02:17:38.158Z,-0.20
2022-11-29T02:20:48.456Z,-0.20
2022-11-29T02:23:52.904Z,-0.30
2022-11-29T02:26:41.231Z,-0.20
2022-11-29T02:29:23.545Z,-0.30
2022-11-29T02:31:53.554Z,-0.20
2022-11-29T02:34:47.678Z,-0.30
2022-11-29T02:37:17.612Z,-0.30
2022-11-29T02:40:03.456Z,-0.30
2022-11-29T02:42:56.574Z,-0.30
2022-11-29T02:45:51.594Z,-0.30
2022-11-29T02:48:44.546Z,-0.30
2022-11-29T02:51:19.195Z,-0.40
2022-11-29T02:54:05.091Z,-0.30
2022-11-29T02:56:43.216Z,-0.40
2022-11-29T02:59:20.955Z,-0.40
2022-11-29T03:02:21.683Z,-0.40
2022-11-29T03:04:53.017Z,-0.40
2022-11-29T03:07:49.272Z,-0.40
2022-11-29T03:10:43.605Z,-0.40
2022-11-29T03:13:33.300Z,-0.40
2022-11-29T03:16:06.485Z,-0.50
2022-11-29T03:18:40.251Z,-0.40
2022-11-29T03:21:27.373Z,-0.50
2022-11-29T03:23:59.139Z,-0.50
2022-11-29T03:26:55.636Z,-0.50
2022-11-29T03:29:32.854Z,-0.50
2022-11-29T03:32:07.499Z,-0.50
2022-11-29T03:34:57.498Z,-0.50
2022-11-29T03:38:03.998Z,-0.50
2022-11-29T03:41:09.410Z,-0.50
2022-11-29T03:44:07.273Z,-0.50
2022-11-29T03:46:47.737Z,-0.50
2022-11-29T03:49:41.072Z,-0.50
2022-11-29T03:52:42.543Z,-0.50
2022-11-29T03:55:25.879Z,-0.50
2022-11-29T03:58:14.791Z,-0.60
2022-11-29T04:00:48.115Z,-0.60
2022-11-29T04:03:26.784Z,-0.60
2022-11-29T04:06:44.164Z,-0.50
2022-11-29T04:09:37.261Z,-0.50
2022-11-29T04:12:32.440Z,-0.60
2022-11-29T04:15:18.386Z,-0.60
2022-11-29T04:18:19.342Z,-0.60
2022-11-29T04:20:48.349Z,-0.60
2022-11-29T04:23:52.474Z,-0.60
2022-11-29T04:26:40.467Z,-0.60
2022-11-29T04:29:13.683Z,-0.60
2022-11-29T04:32:18.044Z,-0.50
2022-11-29T04:35:14.343Z,-0.60
2022-11-29T04:38:06.300Z,-0.60
2022-11-29T04:41:15.461Z,-0.60
2022-11-29T04:43:54.438Z,-0.60
2022-11-29T04:46:54.340Z,-0.50
2022-11-29T04:49:39.602Z,-0.50
2022-11-29T04:52:28.124Z,-0.50
2022-11-29T04:55:22.844Z,-0.50
2022-11-29T04:58:07.553Z,-0.50
2022-11-29T05:00:50.090Z,-0.40
2022-11-29T05:03:32.297Z,-0.40
2022-11-29T05:06:32.646Z,-0.40
2022-11-29T05:08:59.752Z,-0.40
2022-11-29T05:12:08.417Z,-0.40
2022-11-29T05:15:17.556Z,-0.40
2022-11-29T05:18:02.818Z,-0.40
2022-11-29T05:20:52.474Z,-0.40
2022-11-29T05:23:44.072Z,-0.40
2022-11-29T05:26:23.067Z,-0.40
2022-11-29T05:28:53.208Z,-0.40
2022-11-29T05:31:47.535Z,-0.40
2022-11-29T05:34:20.702Z,-0.40
2022-11-29T05:37:26.032Z,-0.40
2022-11-29T05:40:17.653Z,-0.40
2022-11-29T05:43:06.689Z,-0.40
2022-11-29T05:45:56.021Z,-0.40
2022-11-29T05:48:45.458Z,-0.40
2022-11-29T05:51:15.545Z,-0.40
2022-11-29T05:53:51.618Z,-0.40
2022-11-29T05:56:40.218Z,-0.40
2022-11-29T05:59:15.499Z,-0.40
2022-11-29T06:02:19.167Z,-0.40
2022-11-29T06:05:15.386Z,-0.40
2022-11-29T06:08:01.509Z,-0.40
2022-11-29T06:10:36.129Z,-0.40
2022-11-29T06:13:32.251Z,-0.40
2022-11-29T06:16:18.089Z,-0.40
2022-11-29T06:19:22.462Z,-0.40
2022-11-29T06:22:10.708Z,-0.30
2022-11-29T06:24:52.579Z,-0.40
2022-11-29T06:27:48.816Z,-0.30
2022-11-29T06:30:21.018Z,-0.30
2022-11-29T06:33:14.294Z,-0.30
2022-11-29T06:35:46.091Z,-0.30
2022-11-29T06:38:23.895Z,-0.30
2022-11-29T06:40:53.237Z,-0.30
2022-11-29T06:43:23.681Z,-0.30
2022-11-29T06:46:13.211Z,-0.30
2022-11-29T06:48:51.806Z,-0.30
2022-11-29T06:51:25.388Z,-0.20
2022-11-29T06:54:11.797Z,-0.20
2022-11-29T06:56:45.108Z,-0.20
2022-11-29T06:59:49.466Z,-0.20
2022-11-29T07:02:37.953Z,-0.10
2022-11-29T07:05:11.247Z,-0.10
2022-11-29T07:07:39.167Z,-0.10
2022-11-29T07:10:11.982Z,-0.10
2022-11-29T07:12:42.231Z,0.00
2022-11-29T07:15:20.524Z,0.00
2022-11-29T07:17:56.349Z,0.00
2022-11-29T07:20:50.505Z,0.00
2022-11-29T07:23:35.022Z,0.10
2022-11-29T07:26:21.980Z,0.10
2022-11-29T07:29:07.867Z,0.20
2022-11-29T07:31:52.568Z,0.20
2022-11-29T07:34:45.379Z,0.20
2022-11-29T07:37:37.556Z,0.20
2022-11-29T07:40:25.522Z,0.30
2022-11-29T07:42:59.720Z,0.30
2022-11-29T07:45:32.099Z,0.30
2022-11-29T07:47:59.986Z,0.40
2022-11-29T07:50:28.777Z,0.40
2022-11-29T07:52:56.922Z,0.40
2022-11-29T07:55:26.738Z,0.40
2022-11-29T07:57:54.058Z,0.50
2022-11-29T08:00:21.475Z,0.50
2022-11-29T08:02:50.199Z,0.50
2022-11-29T08:05:18.427Z,0.60
2022-11-29T08:07:46.684Z,0.60
2022-11-29T08:10:16.463Z,0.60
2022-11-29T08:12:45.675Z,0.60
2022-11-29T08:15:13.062Z,0.70
2022-11-29T08:17:40.637Z,0.70
2022-11-29T08:20:09.843Z,0.70
2022-11-29T08:22:37.012Z,0.70
2022-11-29T08:25:04.856Z,0.70
2022-11-29T08:27:32.251Z,0.70
2022-11-29T08:29:59.836Z,0.80
2022-11-29T08:32:28.197Z,0.80
2022-11-29T08:34:55.486Z,0.80
2022-11-29T08:37:22.685Z,0.80
2022-11-29T08:39:49.942Z,0.80
2022-11-29T08:42:17.258Z,0.80
2022-11-29T08:44:44.773Z,0.90
2022-11-29T08:47:32.283Z,0.90
2022-11-29T08:50:02.269Z,0.90
2022-11-29T08:52:53.030Z,0.90
2022-11-29T08:55:20.735Z,1.00
2022-11-29T08:57:49.195Z,0.90
2022-11-29T09:00:17.866Z,0.90
2022-11-29T09:02:45.305Z,1.00
2022-11-29T09:05:12.645Z,1.00
2022-11-29T09:07:39.992Z,1.00
2022-11-29T09:10:08.713Z,1.00
2022-11-29T09:12:37.319Z,1.00
2022-11-29T09:15:06.725Z,1.00
2022-11-29T09:17:34.002Z,1.00
2022-11-29T09:20:01.285Z,1.10
2022-11-29T09:22:28.525Z,1.00
2022-11-29T09:24:55.714Z,1.10
2022-11-29T09:27:22.819Z,1.00
2022-11-29T09:29:50.038Z,1.10
2022-11-29T09:32:17.262Z,1.10
2022-11-29T09:34:44.612Z,1.10
2022-11-29T09:37:11.996Z,1.10
2022-11-29T09:39:40.430Z,1.10
2022-11-29T09:42:27.799Z,1.20
2022-11-29T09:45:08.801Z,1.20
2022-11-29T09:47:56.714Z,1.20
2022-11-29T09:50:36.818Z,1.20
2022-11-29T09:53:09.371Z,1.20
2022-11-29T09:55:39.764Z,1.20
2022-11-29T09:58:13.842Z,1.20
2022-11-29T10:00:50.858Z,1.20
2022-11-29T10:03:42.128Z,1.30
2022-11-29T10:06:21.367Z,1.30
2022-11-29T10:09:11.184Z,1.30
2022-11-29T10:11:38.503Z,1.30
2022-11-29T10:14:15.948Z,1.30
2022-11-29T10:17:04.299Z,1.30
2022-11-29T10:19:40.167Z,1.30
2022-11-29T10:22:49.527Z,1.30
2022-11-29T10:25:25.102Z,1.30
2022-11-29T10:27:53.835Z,1.30
2022-11-29T10:30:21.461Z,1.30
2022-11-29T10:32:56.380Z,1.30
2022-11-29T10:35:24.012Z,1.30
2022-11-29T10:38:29.170Z,1.30
2022-11-29T10:40:50.345Z,1.30
2022-11-29T10:43:17.504Z,1.40
2022-11-29T10:45:53.689Z,1.30
2022-11-29T10:48:33.592Z,1.30
2022-11-29T10:51:01.800Z,1.30
2022-11-29T10:53:36.215Z,1.40
2022-11-29T10:56:09.946Z,1.30
2022-11-29T10:58:57.326Z,1.30
2022-11-29T11:01:26.720Z,1.30
2022-11-29T11:03:56.207Z,1.40
2022-11-29T11:06:25.241Z,1.40
2022-11-29T11:08:58.038Z,1.40
2022-11-29T11:11:34.364Z,1.50
2022-11-29T11:14:26.659Z,1.50
2022-11-29T11:16:54.294Z,1.60
2022-11-29T11:19:32.257Z,1.50
2022-11-29T11:22:02.763Z,1.50
2022-11-29T11:24:33.235Z,1.60
2022-11-29T11:27:01.248Z,1.60
2022-11-29T11:29:44.468Z,1.60
2022-11-29T11:32:20.055Z,1.60
2022-11-29T11:35:02.549Z,1.60
2022-11-29T11:37:35.842Z,1.60
2022-11-29T11:40:29.381Z,1.60
2022-11-29T11:43:02.689Z,1.60
2022-11-29T11:45:36.874Z,1.60
2022-11-29T11:48:16.055Z,1.50
2022-11-29T11:50:50.159Z,1.40
2022-11-29T11:53:37.764Z,1.40
2022-11-29T11:56:09.416Z,1.40
2022-11-29T11:58:57.037Z,1.30
2022-11-29T12:01:38.741Z,1.30
2022-11-29T12:04:32.008Z,1.30
2022-11-29T12:07:01.352Z,1.30
2022-11-29T12:09:49.311Z,1.20
2022-11-29T12:12:23.390Z,1.20
2022-11-29T12:15:04.320Z,1.20
2022-11-29T12:17:52.688Z,1.20
2022-11-29T12:20:28.497Z,1.10
2022-11-29T12:23:13.641Z,1.10
2022-11-29T12:25:44.837Z,1.10
2022-11-29T12:28:19.856Z,1.10
2022-11-29T12:31:11.622Z,1.10
2022-11-29T12:34:09.536Z,1.10
2022-11-29T12:37:00.237Z,1.10
2022-11-29T12:39:49.981Z,1.10
2022-11-29T12:42:40.405Z,1.00
2022-11-29T12:45:44.445Z,1.00
2022-11-29T12:48:41.884Z,1.00
2022-11-29T12:51:23.345Z,1.00
2022-11-29T12:54:22.008Z,1.10
2022-11-29T12:57:18.277Z,1.00
2022-11-29T12:59:57.687Z,1.00
2022-11-29T13:02:50.308Z,1.00
2022-11-29T13:05:30.125Z,0.90
2022-11-29T13:08:08.730Z,1.00
2022-11-29T13:11:06.377Z,0.90
2022-11-29T13:13:41.349Z,0.90
2022-11-29T13:16:13.589Z,0.90
2022-11-29T13:18:47.195Z,0.80
2022-11-29T13:21:20.488Z,0.80
2022-11-29T13:24:12.205Z,0.80
2022-11-29T13:26:40.975Z,0.80
2022-11-29T13:29:15.715Z,0.80
2022-11-29T13:31:44.311Z,0.80
2022-11-29T13:34:45.772Z,0.70
2022-11-29T13:37:27.285Z,0.70
2022-11-29T13:40:18.948Z,0.70
2022-11-29T13:43:21.395Z,0.60
2022-11-29T13:46:21.895Z,0.60
2022-11-29T13:48:53.755Z,0.60
2022-11-29T13:51:27.605Z,0.60
2022-11-29T13:54:00.715Z,0.50
2022-11-29T13:56:33.075Z,0.50
2022-11-29T13:59:05.976Z,0.50
2022-11-29T14:01:44.607Z,0.50
2022-11-29T14:04:29.302Z,0.50
2022-11-29T14:07:15.652Z,0.40
2022-11-29T14:09:48.861Z,0.40
2022-11-29T14:12:40.395Z,0.40
2022-11-29T14:15:43.095Z,0.40
2022-11-29T14:18:49.554Z,0.40
2022-11-29T14:21:16.857Z,0.40
2022-11-29T14:23:44.615Z,0.40
2022-11-29T14:26:11.778Z,0.40
2022-11-29T14:28:40.394Z,0.40
2022-11-29T14:31:08.924Z,0.40
2022-11-29T14:33:58.746Z,0.40
2022-11-29T14:36:54.256Z,0.40
2022-11-29T14:39:28.282Z,0.30
2022-11-29T14:42:17.166Z,0.30
2022-11-29T14:44:51.328Z,0.30
2022-11-29T14:47:38.370Z,0.30
2022-11-29T14:50:09.646Z,0.30
2022-11-29T14:52:40.123Z,0.30
2022-11-29T14:55:29.806Z,0.20
2022-11-29T14:58:06.452Z,0.20
2022-11-29T15:00:33.507Z,0.20
2022-11-29T15:03:33.520Z,0.20
2022-11-29T15:06:24.386Z,0.20
2022-11-29T15:09:02.181Z,0.20
2022-11-29T15:11:50.535Z,0.10
2022-11-29T15:14:58.985Z,0.10
2022-11-29T15:17:36.644Z,0.10
2022-11-29T15:20:09.368Z,0.10
2022-11-29T15:22:48.152Z,0.10
2022-11-29T15:25:19.884Z,0.10
2022-11-29T15:28:06.414Z,0.00
2022-11-29T15:30:38.570Z,0.00
2022-11-29T15:33:23.659Z,0.00
2022-11-29T15:36:23.575Z,0.00
2022-11-29T15:38:53.347Z,0.00
2022-11-29T15:41:34.764Z,0.00
2022-11-29T15:44:07.676Z,0.00
2022-11-29T15:46:36.138Z,0.00
2022-11-29T15:49:16.757Z,0.00
2022-11-29T15:51:44.724Z,-0.10
2022-11-29T15:54:16.957Z,0.00
2022-11-29T15:57:01.222Z,-0.10
2022-11-29T15:59:37.585Z,-0.10
2022-11-29T16:02:33.451Z,-0.10
2022-11-29T16:05:20.427Z,-0.10
2022-11-29T16:07:50.175Z,-0.10
2022-11-29T16:10:33.487Z,-0.10
2022-11-29T16:13:07.926Z,-0.10
2022-11-29T16:15:37.626Z,-0.10
2022-11-29T16:18:25.759Z,-0.10
2022-11-29T16:21:00.477Z,-0.10
2022-11-29T16:23:38.274Z,-0.10
2022-11-29T16:26:05.424Z,-0.10
2022-11-29T16:28:37.215Z,-0.10
2022-11-29T16:31:05.179Z,-0.10
2022-11-29T16:33:32.931Z,-0.10
2022-11-29T16:36:13.595Z,-0.10
2022-11-29T16:38:47.734Z,-0.10
2022-11-29T16:41:35.006Z,-0.20
2022-11-29T16:44:03.889Z,-0.20
2022-11-29T16:46:40.365Z,-0.20
2022-11-29T16:49:36.587Z,-0.30
2022-11-29T16:52:27.325Z,-0.30
2022-11-29T16:54:54.384Z,-0.30
2022-11-29T16:57:22.055Z,-0.30
2022-11-29T16:59:49.635Z,-0.30
2022-11-29T17:02:17.335Z,-0.30
2022-11-29T17:04:45.477Z,-0.40
2022-11-29T17:07:28.897Z,-0.40
2022-11-29T17:09:57.213Z,-0.40
2022-11-29T17:12:24.424Z,-0.40
2022-11-29T17:14:51.664Z,-0.40
2022-11-29T17:17:20.027Z,-0.40
2022-11-29T17:19:47.214Z,-0.40
2022-11-29T17:22:14.454Z,-0.40
2022-11-29T17:24:46.389Z,-0.40
2022-11-29T17:27:15.539Z,-0.40
2022-11-29T17:29:42.780Z,-0.50
2022-11-29T17:32:09.974Z,-0.50
2022-11-29T17:34:37.167Z,-0.50
2022-11-29T17:37:04.366Z,-0.50
2022-11-29T17:39:32.335Z,-0.50
2022-11-29T17:41:59.600Z,-0.50
2022-11-29T17:44:26.663Z,-0.50
2022-11-29T17:46:53.875Z,-0.50
2022-11-29T17:49:21.028Z,-0.50
2022-11-29T17:51:52.987Z,-0.50
2022-11-29T17:54:21.636Z,-0.50
2022-11-29T17:56:49.515Z,-0.50
2022-11-29T17:59:16.744Z,-0.60
2022-11-29T18:01:43.993Z,-0.60
2022-11-29T18:04:11.543Z,-0.60
2022-11-29T18:06:40.929Z,-0.60
2022-11-29T18:09:10.187Z,-0.60
2022-11-29T18:11:46.982Z,-0.60
2022-11-29T18:14:18.078Z,-0.60
2022-11-29T18:16:45.848Z,-0.60
2022-11-29T18:19:16.048Z,-0.60
2022-11-29T18:21:43.959Z,-0.60
2022-11-29T18:24:15.393Z,-0.60
2022-11-29T18:26:43.499Z,-0.60
2022-11-29T18:29:11.236Z,-0.70
2022-11-29T18:31:41.866Z,-0.70
2022-11-29T18:34:13.613Z,-0.70
2022-11-29T18:36:46.932Z,-0.70
2022-11-29T18:39:16.907Z,-0.70
2022-11-29T18:41:48.684Z,-0.70
2022-11-29T18:44:18.655Z,-0.70
2022-11-29T18:46:46.834Z,-0.70
2022-11-29T18:49:17.389Z,-0.70
2022-11-29T18:51:45.525Z,-0.70
2022-11-29T18:54:14.758Z,-0.70
2022-11-29T18:56:42.740Z,-0.70
2022-11-29T18:59:13.777Z,-0.70
2022-11-29T19:01:43.032Z,-0.80
2022-11-29T19:04:16.019Z,-0.80
2022-11-29T19:06:43.894Z,-0.80
2022-11-29T19:09:22.674Z,-0.80
2022-11-29T19:11:50.584Z,-0.80
2022-11-29T19:14:18.874Z,-0.80
2022-11-29T19:16:47.716Z,-0.80
2022-11-29T19:19:15.434Z,-0.80
2022-11-29T19:21:42.925Z,-0.80
2022-11-29T19:24:15.960Z,-0.80
2022-11-29T19:26:45.743Z,-0.90
2022-11-29T19:29:16.562Z,-0.90
2022-11-29T19:31:43.939Z,-0.90
2022-11-29T19:34:11.603Z,-0.90
2022-11-29T19:36:43.966Z,-0.90
2022-11-29T19:39:14.239Z,-1.00
2022-11-29T19:41:43.937Z,-1.00
2022-11-29T19:44:11.234Z,-1.10
2022-11-29T19:46:41.989Z,-1.10
2022-11-29T19:49:09.637Z,-1.10
2022-11-29T19:51:37.128Z,-1.10
2022-11-29T19:54:07.259Z,-1.20
2022-11-29T19:56:34.656Z,-1.20
2022-11-29T19:59:01.958Z,-1.20
2022-11-29T20:01:39.244Z,-1.20
2022-11-29T20:04:07.723Z,-1.30
2022-11-29T20:06:34.973Z,-1.30
2022-11-29T20:09:02.865Z,-1.30
2022-11-29T20:11:30.106Z,-1.30
2022-11-29T20:14:02.105Z,-1.30
2022-11-29T20:16:30.582Z,-1.30
2022-11-29T20:18:58.817Z,-1.40
2022-11-29T20:21:28.514Z,-1.30
2022-11-29T20:24:06.494Z,-1.40
2022-11-29T20:26:35.628Z,-1.40
2022-11-29T20:29:04.950Z,-1.40
2022-11-29T20:31:34.009Z,-1.40
2022-11-29T20:34:01.516Z,-1.40
2022-11-29T20:36:37.435Z,-1.40
2022-11-29T20:39:53.136Z,-1.40
2022-11-29T20:42:36.837Z,-1.40
2022-11-29T20:45:09.213Z,-1.50
2022-11-29T20:47:54.334Z,-1.50
2022-11-29T20:50:23.949Z,-1.50
2022-11-29T20:53:14.805Z,-1.50
2022-11-29T20:55:47.741Z,-1.50
2022-11-29T20:58:16.313Z,-1.50
2022-11-29T21:00:43.614Z,-1.50
2022-11-29T21:03:17.230Z,-1.50
2022-11-29T21:05:45.355Z,-1.50
2022-11-29T21:08:13.434Z,-1.50
2022-11-29T21:10:40.912Z,-1.60
2022-11-29T21:13:10.359Z,-1.50
2022-11-29T21:15:38.136Z,-1.60
2022-11-29T21:18:05.734Z,-1.60
2022-11-29T21:20:33.099Z,-1.60
2022-11-29T21:23:22.834Z,-1.60
2022-11-29T21:25:54.996Z,-1.60
2022-11-29T21:28:29.214Z,-1.60
2022-11-29T21:30:56.816Z,-1.60
2022-11-29T21:33:24.300Z,-1.60
2022-11-29T21:35:54.774Z,-1.60
2022-11-29T21:38:24.565Z,-1.60
2022-11-29T21:40:51.654Z,-1.60
2022-11-29T21:43:18.769Z,-1.60
2022-11-29T21:45:47.937Z,-1.70
2022-11-29T21:48:34.144Z,-1.60
2022-11-29T21:51:03.047Z,-1.60
2022-11-29T21:53:30.194Z,-1.70
2022-11-29T21:55:59.024Z,-1.60
2022-11-29T21:58:28.345Z,-1.60
2022-11-29T22:00:55.556Z,-1.60
2022-11-29T22:03:22.714Z,-1.60
2022-11-29T22:05:49.892Z,-1.60
2022-11-29T22:08:18.057Z,-1.70
2022-11-29T22:10:45.144Z,-1.70
2022-11-29T22:13:12.345Z,-1.70
2022-11-29T22:15:39.599Z,-1.70
2022-11-29T22:18:06.825Z,-1.70
2022-11-29T22:20:34.015Z,-1.70
2022-11-29T22:23:01.167Z,-1.70
2022-11-29T22:25:28.375Z,-1.70
2022-11-29T22:27:55.485Z,-1.70
2022-11-29T22:30:22.637Z,-1.70
2022-11-29T22:32:49.778Z,-1.70
2022-11-29T22:35:16.939Z,-1.80
2022-11-29T22:37:44.214Z,-1.80
2022-11-29T22:40:11.925Z,-1.80
2022-11-29T22:42:39.207Z,-1.80
2022-11-29T22:45:06.845Z,-1.80
2022-11-29T22:47:34.006Z,-1.80
2022-11-29T22:50:01.115Z,-1.90
2022-11-29T22:52:28.295Z,-1.80
2022-11-29T22:54:58.672Z,-1.90
2022-11-29T22:57:28.447Z,-1.90
2022-11-29T22:59:55.657Z,-1.90
2022-11-29T23:02:22.829Z,-1.90
2022-11-29T23:04:49.904Z,-1.90
2022-11-29T23:07:17.067Z,-1.90
2022-11-29T23:09:44.228Z,-2.00
2022-11-29T23:12:11.377Z,-1.90
2022-11-29T23:14:38.537Z,-2.00
2022-11-29T23:17:05.728Z,-2.00
2022-11-29T23:19:32.809Z,-2.00
2022-11-29T23:22:00.039Z,-2.00
2022-11-29T23:24:27.195Z,-2.00
2022-11-29T23:26:54.318Z,-2.00
2022-11-29T23:29:21.444Z,-2.00
2022-11-29T23:31:49.328Z,-2.00
2022-11-29T23:34:16.574Z,-2.00
2022-11-29T23:36:46.997Z,-2.00
2022-11-29T23:39:16.865Z,-2.00
2022-11-29T23:41:44.080Z,-2.00
2022-11-29T23:44:11.279Z,-2.00
2022-11-29T23:46:38.428Z,-2.00
2022-11-29T23:49:05.550Z,-2.00
2022-11-29T23:51:32.800Z,-2.00
2022-11-29T23:53:59.968Z,-2.00
2022-11-29T23:56:27.197Z,-2.00
2022-11-29T23:58:54.416Z,-2.10
